Terminal Aerodrome Forecast
Issued by NWS

Home | Current Version | Previous Version | Text Only | Print | Product List | Glossary On
Versions: 1 2 3 4 5 6 7 8 9 10 11 12 13 14 15 16 17 18 19 20 21
596
FTUS45 KRIW 011720
TAFJAC
TAF
KJAC 011720Z 0118/0218 18013KT 5SM -SN BKN020 OVC030
     FM012000 19015G23KT 5SM -SN BLSN SCT025 BKN035
     FM021000 20012KT P6SM -SN BKN040
      AMD LTD TO CLD VIS AND WIND=

USA.gov is the U.S. government's official web portal to all federal, state and local government web resources and services.